Time;durP1;ratioP1;P1;durP2;ratioP2;P2;SDS_P1;SDS_P2;PMS_P1;PMS_P2;Temp;Humidity;BMP_temperature;BMP_pressure;BME280_temperature;BME280_humidity;BME280_pressure;Samples;Min_cycle;Max_cycle;Signal;HPM_P1;HPM_P2
2022/03/19 00:01:33;;;;;;;7.07;4.50;;;;;;;1.14;46.70;104071.66;4956379;28;20269;-66
2022/03/19 00:03:58;;;;;;;9.27;4.23;;;;;;;1.06;46.32;104056.00;4956126;28;20255;-66
2022/03/19 00:06:24;;;;;;;10.00;4.10;;;;;;;1.04;46.78;104055.16;4973372;28;20035;-67
2022/03/19 00:08:50;;;;;;;7.80;3.90;;;;;;;1.08;46.12;104072.59;4973512;28;20041;-66
2022/03/19 00:11:16;;;;;;;8.37;4.33;;;;;;;1.04;47.03;104068.28;4973590;28;20270;-66
2022/03/19 00:13:41;;;;;;;16.20;7.03;;;;;;;1.04;47.03;104070.03;4973461;28;20051;-67
2022/03/19 00:16:07;;;;;;;10.53;6.07;;;;;;;1.02;47.36;104072.69;4973500;28;20035;-67
2022/03/19 00:18:32;;;;;;;12.90;4.77;;;;;;;1.00;47.12;104068.34;4973313;28;20453;-66
2022/03/19 00:20:58;;;;;;;9.10;5.10;;;;;;;1.03;47.45;104089.31;4973358;28;20093;-67
2022/03/19 00:23:25;;;;;;;7.57;4.10;;;;;;;1.00;47.01;104082.34;4973159;28;20030;-67
2022/03/19 00:25:51;;;;;;;6.57;4.83;;;;;;;0.95;48.67;104076.28;4973355;28;20034;-67
2022/03/19 00:28:18;;;;;;;12.63;4.47;;;;;;;0.83;48.86;104065.94;4973196;28;20341;-68
2022/03/19 00:30:46;;;;;;;16.80;5.40;;;;;;;0.81;49.09;104065.94;4973018;28;20027;-67
2022/03/19 00:33:12;;;;;;;13.73;4.80;;;;;;;0.86;48.20;104079.00;4973289;28;20286;-67
2022/03/19 00:35:38;;;;;;;12.43;4.90;;;;;;;0.82;48.68;104086.06;4972892;28;20693;-67
2022/03/19 00:38:04;;;;;;;7.40;5.13;;;;;;;0.74;49.10;104077.41;4955704;28;20084;-67
2022/03/19 00:40:32;;;;;;;12.60;5.30;;;;;;;0.65;49.37;104064.41;4972977;28;20042;-67
2022/03/19 00:42:58;;;;;;;9.73;4.67;;;;;;;0.76;48.98;104085.25;4972689;28;20035;-67
2022/03/19 00:45:23;;;;;;;15.67;5.67;;;;;;;0.70;49.24;104080.97;4972943;28;20277;-70
2022/03/19 00:47:49;;;;;;;18.23;6.63;;;;;;;0.68;49.35;104082.75;4973234;28;20027;-70
2022/03/19 00:50:14;;;;;;;9.40;5.20;;;;;;;0.81;48.73;104102.69;4973088;28;20027;-69
2022/03/19 00:52:40;;;;;;;21.23;6.27;;;;;;;0.67;48.56;104074.91;4972976;28;20031;-68
2022/03/19 00:55:07;;;;;;;26.57;6.07;;;;;;;0.93;48.38;104102.56;4972895;28;20050;-67
2022/03/19 00:57:44;;;;;;;13.80;5.37;;;;;;;1.03;47.61;104095.44;4974723;28;20270;-68
2022/03/19 01:00:11;;;;;;;14.60;5.47;;;;;;;0.99;47.45;104072.75;4976623;28;20261;-68
2022/03/19 01:02:41;;;;;;;14.07;4.77;;;;;;;1.15;46.62;104091.75;4943363;28;20263;-66
2022/03/19 01:05:08;;;;;;;9.27;4.03;;;;;;;1.24;45.99;104086.41;4976450;28;20294;-67
2022/03/19 01:07:41;;;;;;;9.67;4.83;;;;;;;1.46;46.23;104095.72;4976148;28;20262;-67
2022/03/19 01:10:07;;;;;;;10.20;4.57;;;;;;;1.53;46.34;104093.88;4983130;28;20254;-68
2022/03/19 01:12:34;;;;;;;7.80;4.83;;;;;;;1.46;45.64;104063.34;4986340;28;20266;-67
2022/03/19 01:14:59;;;;;;;7.73;4.30;;;;;;;1.69;46.17;104094.47;4996849;28;20282;-68
2022/03/19 01:17:27;;;;;;;7.33;4.60;;;;;;;1.75;45.74;104097.91;4998002;28;20037;-68
2022/03/19 01:19:52;;;;;;;12.83;4.67;;;;;;;1.79;45.48;104090.84;4978238;28;20117;-67
2022/03/19 01:22:19;;;;;;;6.33;3.97;;;;;;;1.67;45.97;104064.75;4978200;28;20266;-69
2022/03/19 01:24:45;;;;;;;8.70;4.60;;;;;;;1.81;45.72;104087.28;4978168;28;20027;-68
2022/03/19 01:27:11;;;;;;;7.00;4.67;;;;;;;1.79;45.89;104085.59;4976395;28;20263;-67
2022/03/19 01:29:36;;;;;;;9.43;4.77;;;;;;;1.89;45.99;104097.66;4975961;28;20636;-67
2022/03/19 01:32:03;;;;;;;10.53;4.50;;;;;;;1.86;46.74;104100.34;4958905;28;20082;-68
2022/03/19 01:34:29;;;;;;;8.83;4.53;;;;;;;1.90;46.58;104096.78;4958573;28;20022;-67
2022/03/19 01:36:54;;;;;;;9.40;4.97;;;;;;;1.91;46.80;104098.50;4975541;28;20679;-67
2022/03/19 01:39:20;;;;;;;11.40;5.00;;;;;;;1.91;46.99;104098.50;4958396;28;20122;-68
2022/03/19 01:41:45;;;;;;;6.43;4.23;;;;;;;1.90;46.99;104102.03;4976506;28;20078;-67
2022/03/19 01:44:21;;;;;;;8.10;4.67;;;;;;;2.01;46.40;104113.22;4975478;28;20045;-67
2022/03/19 01:47:01;;;;;;;7.30;4.30;;;;;;;1.92;47.08;104099.38;4958252;28;20027;-68
2022/03/19 01:49:29;;;;;;;9.00;4.97;;;;;;;2.01;47.40;104121.13;4958039;28;20338;-67
2022/03/19 01:51:55;;;;;;;6.03;4.10;;;;;;;2.02;47.14;104116.72;4975630;28;20272;-66
2022/03/19 01:54:29;;;;;;;7.97;4.50;;;;;;;1.86;47.63;104088.09;4976517;28;20113;-67
2022/03/19 01:56:57;;;;;;;8.37;4.87;;;;;;;1.94;47.27;104102.84;4975931;28;20150;-68
2022/03/19 01:59:25;;;;;;;7.53;5.00;;;;;;;1.90;47.71;104102.03;4975599;28;20333;-68
2022/03/19 02:01:50;;;;;;;8.07;5.27;;;;;;;1.94;47.55;104106.34;4957809;28;20254;-67
2022/03/19 02:04:18;;;;;;;6.57;4.37;;;;;;;1.88;48.05;104109.09;4975034;28;20266;-70
2022/03/19 02:06:44;;;;;;;5.77;4.87;;;;;;;1.79;48.20;104107.47;4975200;28;20030;-68
2022/03/19 02:09:10;;;;;;;6.50;5.43;;;;;;;1.64;48.21;104084.06;4974344;28;20266;-69
2022/03/19 02:11:36;;;;;;;10.57;5.00;;;;;;;1.95;48.09;104126.47;4975193;28;20317;-69
2022/03/19 02:14:03;;;;;;;6.47;3.97;;;;;;;1.94;48.39;104129.13;4975019;28;20074;-67
2022/03/19 02:16:28;;;;;;;13.17;4.13;;;;;;;1.86;48.39;104102.97;4974856;28;20134;-67
2022/03/19 02:18:57;;;;;;;7.57;4.00;;;;;;;2.07;48.06;104125.44;4974896;28;20825;-68
2022/03/19 02:21:22;;;;;;;5.65;4.50;;;;;;;1.92;48.47;104104.63;4975152;28;20030;-67
2022/03/19 02:26:44;;;;;;;6.83;4.00;;;;;;;1.59;48.25;104045.63;4974668;28;20467;-68
2022/03/19 02:29:10;;;;;;;14.43;4.70;;;;;;;1.73;48.42;104080.41;4974575;28;20321;-68
2022/03/19 02:31:40;;;;;;;7.03;5.03;;;;;;;2.11;48.60;104154.28;4974736;28;20304;-68
2022/03/19 02:34:09;;;;;;;9.87;5.17;;;;;;;2.08;48.90;104143.81;4974841;28;20270;-69
2022/03/19 02:36:36;;;;;;;12.03;4.27;;;;;;;2.07;49.10;104142.06;4974512;28;20374;-69
2022/03/19 02:39:31;;;;;;;18.30;4.87;;;;;;;2.10;49.72;104147.28;4957154;28;20259;-68
2022/03/19 02:42:05;;;;;;;8.37;4.47;;;;;;;1.96;49.91;104149.25;4971892;28;20278;-68
2022/03/19 02:44:32;;;;;;;7.27;4.67;;;;;;;1.85;50.65;104140.66;4974948;28;20726;-68
2022/03/19 02:47:00;;;;;;;7.47;4.60;;;;;;;1.81;50.46;104128.47;4974834;28;20261;-70
2022/03/19 02:49:26;;;;;;;17.10;4.97;;;;;;;1.95;50.74;104142.25;4974423;28;20730;-68
2022/03/19 02:51:53;;;;;;;6.97;4.40;;;;;;;2.03;50.19;104145.66;4974168;28;20258;-68
2022/03/19 02:54:21;;;;;;;8.87;4.90;;;;;;;1.83;50.89;104110.91;4973991;28;20266;-70
2022/03/19 02:56:47;;;;;;;12.82;5.03;;;;;;;1.86;50.30;104105.59;4974153;28;20373;-68
2022/03/19 02:59:20;;;;;;;8.13;6.07;;;;;;;1.99;51.03;104138.69;4974608;28;20125;-67
2022/03/19 03:02:05;;;;;;;8.97;4.77;;;;;;;2.06;50.74;104142.09;4974285;28;20277;-68
2022/03/19 03:04:31;;;;;;;8.70;5.00;;;;;;;1.93;50.83;104146.66;4974190;28;20402;-69
2022/03/19 03:06:59;;;;;;;6.70;5.17;;;;;;;2.01;51.24;104180.72;4974215;28;20274;-68
2022/03/19 03:09:26;;;;;;;10.00;5.60;;;;;;;2.04;51.30;104184.19;4974044;28;20272;-68
2022/03/19 03:11:53;;;;;;;7.53;4.80;;;;;;;2.08;51.40;104201.66;4974340;28;20286;-67
2022/03/19 03:14:21;;;;;;;10.10;5.13;;;;;;;2.07;51.81;104215.69;4974454;28;20373;-68
2022/03/19 03:16:52;;;;;;;12.57;5.80;;;;;;;1.76;51.83;104157.47;4956438;28;20293;-69
2022/03/19 03:19:19;;;;;;;9.93;5.53;;;;;;;1.97;52.21;104192.16;4973736;28;20593;-69
2022/03/19 03:21:45;;;;;;;20.83;6.73;;;;;;;1.99;53.23;104193.88;4974141;28;20262;-68
2022/03/19 03:24:22;;;;;;;11.27;6.93;;;;;;;2.11;53.50;104208.63;4974234;28;20293;-67
2022/03/19 03:26:47;;;;;;;14.70;6.97;;;;;;;2.24;55.00;104231.19;4974159;28;20325;-69
2022/03/19 03:29:14;;;;;;;15.93;9.90;;;;;;;2.22;59.65;104225.09;4956253;28;20262;-68
2022/03/19 03:31:40;;;;;;;22.17;11.47;;;;;;;2.20;61.58;104237.41;4973649;28;20027;-69
2022/03/19 03:34:05;;;;;;;19.53;10.50;;;;;;;2.07;62.91;104210.44;4973598;28;20309;-69
2022/03/19 03:36:31;;;;;;;17.20;10.40;;;;;;;2.13;63.21;104222.59;4973607;28;20386;-68
2022/03/19 03:38:57;;;;;;;16.83;10.10;;;;;;;2.12;63.81;104216.47;4973840;28;20035;-68
2022/03/19 03:41:22;;;;;;;15.13;9.30;;;;;;;2.07;63.84;104214.81;4974078;28;20037;-69
2022/03/19 03:43:48;;;;;;;14.97;9.10;;;;;;;2.01;63.72;104207.88;4973556;28;20266;-69
2022/03/19 03:46:14;;;;;;;19.33;10.40;;;;;;;2.20;64.76;104233.91;4973513;28;20049;-70
2022/03/19 03:48:39;;;;;;;22.03;11.30;;;;;;;2.06;64.74;104213.09;4973508;28;20037;-68
2022/03/19 03:51:06;;;;;;;20.97;12.17;;;;;;;1.82;65.50;104174.88;4973906;28;20033;-68
2022/03/19 03:53:33;;;;;;;18.37;10.17;;;;;;;2.21;65.04;104233.00;4973599;28;20030;-69
2022/03/19 03:56:03;;;;;;;23.80;11.00;;;;;;;2.14;65.01;104195.41;4956226;28;20314;-68
2022/03/19 03:58:32;;;;;;;22.53;11.43;;;;;;;2.18;65.08;104203.22;4973463;28;20277;-67
2022/03/19 04:00:58;;;;;;;25.13;11.67;;;;;;;2.24;66.52;104207.53;4974145;28;20278;-68
2022/03/19 04:03:24;;;;;;;17.13;10.53;;;;;;;2.14;66.38;104209.44;4973517;28;20061;-68
2022/03/19 04:05:49;;;;;;;21.63;10.60;;;;;;;2.15;67.04;104211.16;4973623;28;20031;-69
2022/03/19 04:08:16;;;;;;;19.87;11.77;;;;;;;2.15;67.87;104203.28;4973204;28;20078;-70
2022/03/19 04:10:41;;;;;;;19.00;10.50;;;;;;;2.24;67.93;104212.78;4973452;28;20402;-69
2022/03/19 04:13:07;;;;;;;27.13;14.60;;;;;;;2.35;67.80;104217.88;4973164;28;20246;-69
2022/03/19 04:15:32;;;;;;;27.30;13.87;;;;;;;2.23;68.29;104187.38;4973197;28;20494;-68
2022/03/19 04:17:58;;;;;;;25.63;12.80;;;;;;;2.21;68.77;104180.41;4973513;28;20034;-69
2022/03/19 04:20:24;;;;;;;26.93;14.60;;;;;;;2.03;68.75;104178.97;4955940;28;20034;-67
2022/03/19 04:22:51;;;;;;;30.23;15.10;;;;;;;2.26;70.81;104225.91;4955941;28;20402;-69
2022/03/19 04:25:21;;;;;;;25.23;14.40;;;;;;;2.26;70.74;104204.88;4973054;28;20266;-69
2022/03/19 04:27:49;;;;;;;27.03;14.43;;;;;;;2.38;70.80;104231.84;4973253;28;20789;-70
2022/03/19 04:30:17;;;;;;;26.57;14.10;;;;;;;2.31;70.94;104234.59;4972794;28;20717;-70
2022/03/19 04:32:59;;;;;;;26.87;14.50;;;;;;;2.35;71.64;104228.41;4975200;28;20262;-69
2022/03/19 04:38:13;;;;;;;35.93;16.57;;;;;;;2.42;73.99;104258.97;4976794;28;20265;-68
2022/03/19 04:40:40;;;;;;;36.97;17.60;;;;;;;2.47;74.21;104267.66;4976480;28;20408;-70
2022/03/19 04:43:07;;;;;;;31.83;18.47;;;;;;;2.46;74.60;104271.19;4976992;28;20312;-70
2022/03/19 04:45:34;;;;;;;37.03;19.13;;;;;;;2.44;74.79;104251.94;4976638;28;20793;-69
2022/03/19 04:48:00;;;;;;;28.80;17.63;;;;;;;2.52;74.23;104257.06;4976576;28;20348;-69
2022/03/19 04:50:25;;;;;;;33.57;16.60;;;;;;;2.50;73.67;104272.88;4977534;28;20341;-68
2022/03/19 04:52:52;;;;;;;34.00;17.23;;;;;;;2.31;74.16;104261.75;4976991;28;20121;-69
2022/03/19 04:55:19;;;;;;;33.87;17.93;;;;;;;2.44;74.44;104288.75;4976258;28;20051;-69
2022/03/19 04:58:10;;;;;;;39.07;21.20;;;;;;;2.40;75.86;104281.81;4977378;28;20325;-68
2022/03/19 05:00:37;;;;;;;35.70;20.37;;;;;;;2.47;76.34;104299.22;4977065;28;20321;-68
2022/03/19 05:03:06;;;;;;;36.00;20.07;;;;;;;2.56;75.93;104316.63;4976432;28;20030;-66
2022/03/19 05:05:32;;;;;;;;;;;;;;;2.63;74.91;104316.53;4976625;28;20798;-66
2022/03/19 05:07:58;;;;;;;31.33;19.67;;;;;;;2.59;75.58;104304.28;4976988;28;20009;-69
2022/03/19 05:13:07;;;;;;;45.50;22.70;;;;;;;2.69;74.95;104292.75;4977262;28;20473;-65
2022/03/19 05:15:34;;;;;;;37.40;20.53;;;;;;;2.58;74.66;104273.59;4976046;28;20298;-69
2022/03/19 05:17:59;;;;;;;37.60;22.43;;;;;;;2.65;75.75;104300.72;4976520;28;20031;-68
2022/03/19 05:20:25;;;;;;;36.10;20.23;;;;;;;2.72;75.50;104308.47;4976070;28;20250;-67
2022/03/19 05:22:51;;;;;;;47.60;24.20;;;;;;;2.77;74.68;104308.38;4975852;28;20035;-67
2022/03/19 05:25:16;;;;;;;34.67;20.73;;;;;;;2.78;74.87;104305.72;4975819;28;20077;-66
2022/03/19 05:27:42;;;;;;;34.60;21.03;;;;;;;2.83;74.45;104315.31;4975627;28;20026;-67
2022/03/19 05:30:08;;;;;;;29.67;19.13;;;;;;;2.72;75.04;104313.75;4958265;28;20743;-67
2022/03/19 05:32:35;;;;;;;38.60;20.37;;;;;;;2.71;74.22;104306.75;4975438;28;20038;-70
2022/03/19 05:35:02;;;;;;;34.30;21.33;;;;;;;2.79;74.00;104323.25;4975384;28;20746;-67
2022/03/19 05:37:28;;;;;;;37.33;19.70;;;;;;;2.82;74.02;104326.75;4975644;28;20288;-67
2022/03/19 05:40:04;;;;;;;34.13;20.57;;;;;;;2.79;73.72;104319.75;4975347;28;20254;-72
2022/03/19 05:42:29;;;;;;;34.30;18.63;;;;;;;2.66;74.09;104320.88;4976353;28;20467;-64
2022/03/19 05:44:55;;;;;;;38.80;20.03;;;;;;;2.66;73.82;104316.47;4975456;28;20305;-71
2022/03/19 05:47:20;;;;;;;34.40;20.33;;;;;;;2.62;74.23;104325.31;4975239;28;20042;-67
2022/03/19 05:49:46;;;;;;;36.20;20.13;;;;;;;2.54;73.95;104327.19;4975442;28;20410;-67
2022/03/19 05:52:11;;;;;;;30.07;18.77;;;;;;;2.67;74.50;104343.66;4975242;28;20058;-68
2022/03/19 05:54:37;;;;;;;46.67;19.83;;;;;;;2.67;74.38;104347.16;4975310;28;20038;-69
2022/03/19 05:57:03;;;;;;;35.27;19.33;;;;;;;2.57;74.09;104336.78;4974908;28;20105;-68
2022/03/19 05:59:29;;;;;;;32.50;20.33;;;;;;;2.70;73.84;104360.28;4975158;28;20057;-71
2022/03/19 06:01:54;;;;;;;29.83;19.03;;;;;;;2.72;73.33;104354.97;4975348;28;20742;-67
2022/03/19 06:04:20;;;;;;;32.97;19.03;;;;;;;2.73;73.40;104349.69;4975077;28;20462;-71
2022/03/19 06:06:47;;;;;;;30.23;18.10;;;;;;;2.61;73.32;104315.69;4975513;28;20030;-74
2022/03/19 06:09:12;;;;;;;32.10;18.67;;;;;;;2.75;72.98;104347.91;4958042;28;20109;-71
2022/03/19 06:11:39;;;;;;;30.07;18.87;;;;;;;2.65;73.44;104351.59;4975386;28;20679;-65
2022/03/19 06:14:05;;;;;;;33.97;18.13;;;;;;;2.64;73.05;104344.59;4975094;28;20038;-72
2022/03/19 06:16:31;;;;;;;27.30;18.23;;;;;;;2.63;73.24;104348.09;4959826;28;20297;-70
2022/03/19 06:18:57;;;;;;;34.00;20.17;;;;;;;2.87;73.29;104380.19;4975826;28;20274;-71
2022/03/19 06:21:23;;;;;;;30.77;18.37;;;;;;;2.85;72.81;104369.66;4962284;28;20022;-69
2022/03/19 06:23:52;;;;;;;44.77;20.57;;;;;;;2.83;72.57;104358.31;4984831;28;20324;-69
2022/03/19 06:26:23;;;;;;;30.05;17.88;;;;;;;2.95;72.64;104370.41;4976524;28;20497;-67
2022/03/19 06:28:49;;;;;;;36.33;18.97;;;;;;;3.00;72.69;104379.97;4976558;28;20031;-67
2022/03/19 06:31:14;;;;;;;31.27;18.40;;;;;;;3.09;72.23;104379.81;4958287;28;20359;-69
2022/03/19 06:33:41;;;;;;;30.47;18.13;;;;;;;3.17;72.04;104377.03;4975951;28;20357;-68
2022/03/19 06:38:51;;;;;;;36.93;20.37;;;;;;;3.15;71.63;104383.22;4975054;28;20316;-67
2022/03/19 06:41:17;;;;;;;33.57;18.40;;;;;;;3.20;71.89;104363.84;4979808;28;20322;-69
2022/03/19 06:43:45;;;;;;;32.60;20.23;;;;;;;3.23;71.73;104381.34;4978908;28;20105;-64
2022/03/19 06:46:11;;;;;;;33.30;18.42;;;;;;;3.29;72.32;104379.47;4962724;28;20114;-68
2022/03/19 06:48:36;;;;;;;35.30;17.90;;;;;;;3.27;71.88;104389.16;4979075;28;20242;-65
2022/03/19 06:51:02;;;;;;;41.27;18.53;;;;;;;3.25;72.26;104396.22;4974708;28;20027;-71
2022/03/19 06:53:27;;;;;;;38.80;18.03;;;;;;;3.26;72.35;104397.09;4977348;28;20031;-69
2022/03/19 06:55:55;;;;;;;39.00;21.53;;;;;;;3.20;72.37;104387.53;4958661;28;20061;-73
2022/03/19 06:58:21;;;;;;;37.13;18.83;;;;;;;3.32;72.37;104405.75;4974457;28;20035;-66
2022/03/19 07:00:47;;;;;;;45.10;20.87;;;;;;;3.09;72.03;104358.75;4960369;28;20263;-71
2022/03/19 07:03:13;;;;;;;35.40;18.10;;;;;;;3.41;72.21;104417.91;4955143;28;20271;-73
2022/03/19 07:05:39;;;;;;;35.70;18.73;;;;;;;3.36;72.05;104404.81;4952044;29;20270;-72
2022/03/19 07:08:08;;;;;;;41.07;20.87;;;;;;;3.46;72.23;104426.59;4955061;28;20023;-69
2022/03/19 07:10:33;;;;;;;;;;;;;;;3.46;72.18;104423.94;4954889;28;20142;-67
2022/03/19 07:13:00;;;;;;;35.80;19.20;;;;;;;3.42;72.79;104430.19;4954556;28;20388;-67
2022/03/19 07:15:30;;;;;;;37.10;19.83;;;;;;;3.15;72.91;104394.63;4954755;28;20081;-68
2022/03/19 07:17:57;;;;;;;32.40;19.67;;;;;;;3.46;73.10;104444.16;4956140;28;20342;-69
2022/03/19 07:20:23;;;;;;;31.17;19.67;;;;;;;3.44;72.81;104423.09;4957419;28;20306;-69
2022/03/19 07:22:58;;;;;;;29.80;17.73;;;;;;;3.27;72.98;104394.44;4959309;28;20271;-69
2022/03/19 07:25:25;;;;;;;44.23;20.40;;;;;;;3.53;72.16;104419.47;4957404;28;20031;-65
2022/03/19 07:27:53;;;;;;;48.17;21.53;;;;;;;3.64;72.58;104422.75;4959231;28;20361;-67
2022/03/19 07:30:19;;;;;;;51.40;21.27;;;;;;;3.68;71.81;104421.81;4955690;29;20317;-68
2022/03/19 07:32:45;;;;;;;43.00;20.30;;;;;;;3.81;71.82;104436.50;4957119;28;20251;-69
2022/03/19 07:35:13;;;;;;;40.07;21.43;;;;;;;3.87;71.35;104436.38;4955907;28;20030;-67
2022/03/19 07:37:40;;;;;;;44.97;23.23;;;;;;;3.82;71.12;104425.06;4954906;28;20286;-75
2022/03/19 07:40:08;;;;;;;41.23;21.77;;;;;;;3.92;71.28;104444.19;4955222;28;20630;-72
2022/03/19 07:42:36;;;;;;;30.67;18.93;;;;;;;3.91;71.14;104443.34;4954284;28;20334;-67
2022/03/19 07:45:03;;;;;;;44.25;19.63;;;;;;;3.86;71.19;104447.84;4952900;29;20271;-71
2022/03/19 07:47:30;;;;;;;35.37;19.17;;;;;;;3.76;71.45;104443.66;4952849;29;20045;-67
2022/03/19 07:49:55;;;;;;;41.63;20.17;;;;;;;3.73;71.26;104431.34;4952400;29;20262;-73
2022/03/19 07:52:21;;;;;;;43.40;20.67;;;;;;;3.75;71.42;104447.16;4953695;28;20251;-68
2022/03/19 07:54:48;;;;;;;44.80;21.90;;;;;;;3.71;71.07;104427.00;4954285;28;20027;-68
2022/03/19 07:57:14;;;;;;;31.83;18.03;;;;;;;3.67;71.06;104436.75;4953290;29;20514;-67
2022/03/19 07:59:41;;;;;;;36.57;19.37;;;;;;;3.66;71.24;104427.09;4954699;28;20271;-67
2022/03/19 08:02:06;;;;;;;39.90;19.17;;;;;;;3.92;71.04;104458.25;4955008;29;20032;-67
2022/03/19 08:04:32;;;;;;;33.23;17.43;;;;;;;3.81;70.67;104439.16;4955608;28;20271;-67
2022/03/19 08:06:58;;;;;;;32.33;17.70;;;;;;;3.89;70.94;104454.81;4955488;28;20031;-69
2022/03/19 08:09:24;;;;;;;32.50;17.63;;;;;;;3.85;71.08;104459.28;4958393;28;20406;-66
2022/03/19 08:11:51;;;;;;;32.90;18.93;;;;;;;3.88;70.70;104459.22;4961468;28;20037;-69
2022/03/19 08:14:17;;;;;;;31.73;18.13;;;;;;;3.96;70.91;104456.44;4963523;28;20255;-70
2022/03/19 08:16:45;;;;;;;26.47;16.83;;;;;;;3.89;70.72;104453.03;4961032;28;20278;-69
2022/03/19 08:19:14;;;;;;;30.70;18.30;;;;;;;3.77;70.42;104437.47;4973240;28;20274;-69
2022/03/19 08:21:44;;;;;;;28.40;16.93;;;;;;;3.72;70.64;104431.38;4973607;28;20270;-72
2022/03/19 08:24:10;;;;;;;28.87;18.53;;;;;;;3.80;71.04;104461.13;4968674;28;20262;-71
2022/03/19 08:26:36;;;;;;;30.17;16.43;;;;;;;3.71;71.47;104462.16;4968256;28;20263;-73
2022/03/19 08:29:03;;;;;;;28.97;18.20;;;;;;;3.67;71.23;104447.28;4968477;28;20300;-74
2022/03/19 08:31:29;;;;;;;35.23;18.33;;;;;;;3.78;71.11;104451.53;4963755;28;20282;-73
2022/03/19 08:33:56;;;;;;;30.67;17.10;;;;;;;3.76;70.97;104435.72;4961266;28;20333;-67
2022/03/19 08:36:22;;;;;;;28.70;16.00;;;;;;;3.96;70.75;104459.94;4962784;28;20035;-71
2022/03/19 08:41:32;;;;;;;35.23;18.37;;;;;;;3.58;70.31;104391.25;4968011;28;20285;-71
2022/03/19 08:43:58;;;;;;;26.17;16.80;;;;;;;3.85;70.18;104434.69;4965257;28;20743;-66
2022/03/19 08:46:25;;;;;;;33.03;16.37;;;;;;;4.07;69.82;104450.97;4960734;28;20047;-67
2022/03/19 08:48:50;;;;;;;28.23;16.83;;;;;;;4.02;69.83;104441.34;4969066;28;20022;-69
2022/03/19 08:54:00;;;;;;;32.13;16.80;;;;;;;4.19;69.28;104446.28;4966395;28;20075;-70
2022/03/19 08:56:27;;;;;;;25.50;15.80;;;;;;;3.65;69.89;104353.31;4968317;28;20306;-71
2022/03/19 08:58:54;;;;;;;26.25;14.15;;;;;;;4.35;69.25;104468.84;4964767;28;20026;-72
2022/03/19 09:01:20;;;;;;;27.20;15.00;;;;;;;4.34;68.97;104455.69;4963389;28;20629;-71
2022/03/19 09:03:45;;;;;;;27.37;15.97;;;;;;;4.30;68.40;104427.59;4956015;29;20375;-72
2022/03/19 09:06:14;;;;;;;27.50;15.60;;;;;;;4.36;68.31;104432.75;4966411;28;20031;-71
2022/03/19 09:08:49;;;;;;;26.80;15.83;;;;;;;4.59;68.68;104478.00;4957664;28;20371;-69
2022/03/19 09:11:18;;;;;;;28.00;15.77;;;;;;;4.31;68.61;104445.16;4957682;28;20350;-75
2022/03/19 09:13:48;;;;;;;24.33;12.67;;;;;;;4.12;69.37;104449.09;4970613;28;20598;-73
2022/03/19 09:16:18;;;;;;;25.10;14.80;;;;;;;4.34;69.59;104484.72;4935547;29;20317;-71
2022/03/19 09:18:44;;;;;;;30.33;16.43;;;;;;;4.35;69.60;104478.53;4966162;28;20366;-71
2022/03/19 09:21:09;;;;;;;32.20;16.77;;;;;;;4.27;69.33;104459.31;4957884;28;20274;-69
2022/03/19 09:23:38;;;;;;;26.83;14.60;;;;;;;4.27;69.05;104443.50;4968280;28;20370;-78
2022/03/19 09:26:04;;;;;;;24.38;14.48;;;;;;;4.22;68.97;104471.75;4957705;28;20019;-65
2022/03/19 09:28:29;;;;;;;19.67;12.97;;;;;;;3.85;69.69;104446.09;4968669;28;20045;-65
2022/03/19 09:30:55;;;;;;;27.17;14.13;;;;;;;4.23;69.75;104491.94;4964761;28;20027;-62
2022/03/19 09:33:21;;;;;;;20.63;14.93;;;;;;;4.26;69.41;104494.53;4957319;28;20063;-63
2022/03/19 09:35:47;;;;;;;20.20;13.60;;;;;;;4.23;69.52;104486.69;4962809;28;20026;-69
2022/03/19 09:38:14;;;;;;;29.23;13.83;;;;;;;4.34;69.22;104497.91;4963913;28;20270;-61
2022/03/19 09:40:41;;;;;;;29.93;15.57;;;;;;;4.15;69.03;104475.41;4956543;28;20031;-63
2022/03/19 09:43:07;;;;;;;26.97;17.07;;;;;;;4.15;69.80;104496.53;4954886;29;20266;-67
2022/03/19 09:45:34;;;;;;;31.73;20.50;;;;;;;3.89;69.94;104463.59;4956332;28;20354;-67
2022/03/19 09:48:00;;;;;;;38.87;21.37;;;;;;;4.33;69.70;104519.88;4961078;28;20259;-69
2022/03/19 09:50:26;;;;;;;30.50;18.63;;;;;;;4.26;68.76;104490.13;4955735;28;20262;-69
2022/03/19 09:52:54;;;;;;;35.00;18.93;;;;;;;4.25;68.73;104476.97;4957325;28;20254;-69
2022/03/19 09:55:28;;;;;;;35.50;18.27;;;;;;;4.56;68.54;104525.56;4955229;28;20690;-64
2022/03/19 09:57:54;;;;;;;31.33;16.87;;;;;;;4.56;68.60;104536.13;4955912;29;20267;-63
2022/03/19 10:00:24;;;;;;;33.43;17.87;;;;;;;4.56;68.34;104530.84;4955929;28;20354;-64
2022/03/19 10:03:02;;;;;;;30.17;18.50;;;;;;;4.50;68.10;104525.72;4955938;28;20346;-63
2022/03/19 10:08:36;;;;;;;35.27;19.20;;;;;;;4.23;69.22;104511.28;4955893;28;20031;-65
2022/03/19 10:11:04;;;;;;;35.17;20.43;;;;;;;4.31;69.38;104513.78;4955891;28;20267;-64
2022/03/19 10:13:30;;;;;;;35.95;20.25;;;;;;;4.46;68.97;104524.03;4955585;28;20259;-65
2022/03/19 10:15:56;;;;;;;29.83;18.70;;;;;;;4.49;69.11;104512.53;4955687;28;20039;-68
2022/03/19 10:18:29;;;;;;;40.53;19.97;;;;;;;4.66;68.45;104521.88;4955629;28;20097;-68
2022/03/19 10:20:59;;;;;;;27.80;17.80;;;;;;;4.65;68.64;104530.69;4954157;29;20050;-65
2022/03/19 10:23:33;;;;;;;28.87;16.13;;;;;;;4.53;68.48;104515.09;4955484;29;20315;-67
2022/03/19 10:25:59;;;;;;;27.43;16.17;;;;;;;4.44;68.73;104506.50;4955430;28;20274;-67
2022/03/19 10:28:33;;;;;;;30.57;18.07;;;;;;;4.37;68.90;104496.97;4955652;28;20329;-67
2022/03/19 10:30:59;;;;;;;27.20;16.77;;;;;;;4.39;68.89;104506.59;4954224;28;20035;-64
2022/03/19 10:33:28;;;;;;;28.30;16.17;;;;;;;4.53;69.25;104525.66;4953702;29;20267;-65
2022/03/19 10:36:10;;;;;;;25.90;15.18;;;;;;;4.60;68.76;104514.03;4954058;29;20290;-65
2022/03/19 10:38:44;;;;;;;32.17;16.43;;;;;;;4.73;68.16;104517.31;4955166;28;20031;-64
2022/03/19 10:41:12;;;;;;;29.47;17.53;;;;;;;4.78;68.26;104514.56;4954848;28;20374;-67
2022/03/19 10:43:38;;;;;;;28.00;15.77;;;;;;;4.76;67.89;104501.41;4955323;28;20266;-64
2022/03/19 10:46:04;;;;;;;39.07;16.60;;;;;;;4.59;67.94;104475.34;4955324;28;20263;-63
2022/03/19 10:48:30;;;;;;;29.53;18.90;;;;;;;4.71;68.09;104502.41;4955199;28;20077;-66
2022/03/19 10:50:57;;;;;;;38.10;17.57;;;;;;;4.71;68.65;104520.88;4954101;29;20259;-66
2022/03/19 10:53:24;;;;;;;38.27;18.13;;;;;;;4.72;68.07;104520.84;4955012;28;20257;-64
2022/03/19 10:55:51;;;;;;;35.23;17.37;;;;;;;4.77;68.61;104512.84;4953396;29;20346;-67
2022/03/19 10:58:17;;;;;;;30.73;17.83;;;;;;;4.82;68.19;104516.22;4955051;28;20623;-68
2022/03/19 11:00:47;;;;;;;30.73;16.07;;;;;;;4.89;68.49;104521.34;4955043;28;20350;-68
2022/03/19 11:03:24;;;;;;;31.10;17.03;;;;;;;5.00;67.59;104510.56;4954794;28;20090;-67
2022/03/19 11:06:07;;;;;;;31.63;18.00;;;;;;;4.65;68.28;104493.72;4954707;28;20265;-67
2022/03/19 11:08:53;;;;;;;28.37;18.23;;;;;;;4.66;68.58;104499.88;4954888;28;20358;-68
2022/03/19 11:11:46;;;;;;;32.23;19.00;;;;;;;4.65;67.81;104462.03;4953529;29;20809;-68
2022/03/19 11:14:19;;;;;;;37.73;17.60;;;;;;;5.01;67.78;104499.09;4948743;29;20262;-66
2022/03/19 11:17:23;;;;;;;31.93;18.20;;;;;;;5.01;67.15;104512.28;4937480;29;20299;-66
2022/03/19 11:19:39;;;;;;;35.27;19.90;;;;;;;4.99;67.07;104514.09;4954556;28;20290;-65
2022/03/19 11:22:05;;;;;;;40.03;20.70;;;;;;;4.90;67.62;104514.28;4954444;28;20267;-65
2022/03/19 11:24:41;;;;;;;37.40;21.43;;;;;;;4.81;68.29;104511.84;4954599;28;20354;-65
2022/03/19 11:27:09;;;;;;;37.40;21.13;;;;;;;4.78;68.35;104520.72;4954308;28;20263;-69
2022/03/19 11:29:35;;;;;;;33.20;20.48;;;;;;;4.65;68.25;104492.84;4954569;28;20330;-65
2022/03/19 11:32:05;;;;;;;33.60;20.23;;;;;;;4.59;68.86;104492.97;4954198;28;20035;-66
2022/03/19 11:34:46;;;;;;;43.27;19.53;;;;;;;4.53;69.63;104520.38;4954317;28;20020;-67
2022/03/19 11:37:13;;;;;;;41.37;20.57;;;;;;;3.84;69.72;104396.91;4957016;28;20294;-68
2022/03/19 11:39:38;;;;;;;35.17;20.30;;;;;;;4.68;69.48;104518.31;4956679;28;20263;-65
2022/03/19 11:42:09;;;;;;;32.13;20.17;;;;;;;4.68;69.98;104521.81;4955049;28;20330;-66
2022/03/19 11:44:48;;;;;;;38.23;22.47;;;;;;;4.54;69.90;104500.97;4954263;28;20479;-65